createdAt,value
2018-07-08T00:00:41.849Z,79
2018-07-08T00:01:43.892Z,79
2018-07-08T00:02:46.363Z,79
2018-07-08T00:03:48.394Z,79
2018-07-08T00:04:50.466Z,79
2018-07-08T00:05:52.481Z,79
2018-07-08T00:06:54.814Z,80
2018-07-08T00:07:56.905Z,80
2018-07-08T00:08:59.233Z,80
2018-07-08T00:10:02.001Z,80
2018-07-08T00:11:04.048Z,80
2018-07-08T00:12:06.120Z,80
2018-07-08T00:13:08.580Z,80
2018-07-08T00:14:10.619Z,80
2018-07-08T00:15:12.653Z,80
2018-07-08T00:16:14.706Z,79
2018-07-08T00:17:16.758Z,79
2018-07-08T00:18:18.790Z,80
2018-07-08T00:19:21.146Z,79
2018-07-08T00:20:23.188Z,79
2018-07-08T00:21:25.246Z,80
2018-07-08T00:22:27.327Z,80
2018-07-08T00:23:29.788Z,80
2018-07-08T00:24:31.826Z,79
2018-07-08T00:25:33.862Z,80
2018-07-08T00:26:35.924Z,80
2018-07-08T00:27:38.277Z,80
2018-07-08T00:28:40.358Z,80
2018-07-08T00:29:42.419Z,80
2018-07-08T00:30:44.453Z,80
2018-07-08T00:31:46.519Z,80
2018-07-08T00:32:48.876Z,80
2018-07-08T00:33:50.934Z,80
2018-07-08T00:34:53.271Z,81
2018-07-08T00:35:55.350Z,81
2018-07-08T00:36:57.414Z,80
2018-07-08T00:37:59.450Z,81
2018-07-08T00:39:01.816Z,81
2018-07-08T00:40:03.857Z,81
2018-07-08T00:41:05.910Z,81
2018-07-08T00:42:07.948Z,81
2018-07-08T00:43:09.979Z,81
2018-07-08T00:44:12.047Z,81
2018-07-08T00:45:14.383Z,81
2018-07-08T00:46:16.461Z,81
2018-07-08T00:47:18.846Z,81
2018-07-08T00:48:21.881Z,81
2018-07-08T00:49:24.245Z,81
2018-07-08T00:50:26.290Z,81
2018-07-08T00:51:28.622Z,81
2018-07-08T00:52:30.675Z,81
2018-07-08T00:53:32.725Z,81
2018-07-08T00:54:34.797Z,81
2018-07-08T00:55:37.104Z,81
2018-07-08T00:56:39.197Z,81
2018-07-08T00:57:41.514Z,81
2018-07-08T00:58:43.577Z,81
2018-07-08T00:59:45.645Z,81
2018-07-08T01:00:47.679Z,81
2018-07-08T01:01:49.744Z,81
2018-07-08T01:02:51.820Z,81
2018-07-08T01:03:54.264Z,82
2018-07-08T01:04:56.314Z,82
2018-07-08T01:05:59.047Z,82
2018-07-08T01:07:01.392Z,82
2018-07-08T01:08:03.738Z,82
2018-07-08T01:09:06.090Z,82
2018-07-08T01:10:08.124Z,82
2018-07-08T01:11:10.165Z,82
2018-07-08T01:12:12.258Z,82
2018-07-08T01:13:14.309Z,82
2018-07-08T01:14:16.660Z,83
2018-07-08T01:15:18.729Z,83
2018-07-08T01:16:20.756Z,82
2018-07-08T01:17:22.835Z,82
2018-07-08T01:18:25.175Z,82
2018-07-08T01:19:27.252Z,82
2018-07-08T01:20:29.298Z,83
2018-07-08T01:21:31.996Z,82
2018-07-08T01:22:34.033Z,82
2018-07-08T01:23:36.471Z,83
2018-07-08T01:24:38.791Z,83
2018-07-08T01:25:40.869Z,83
2018-07-08T01:26:42.909Z,82
2018-07-08T01:27:45.256Z,83
2018-07-08T01:28:47.315Z,83
2018-07-08T01:29:49.353Z,83
2018-07-08T01:30:51.415Z,83
2018-07-08T01:31:53.457Z,83
2018-07-08T01:32:55.488Z,82
2018-07-08T01:33:57.532Z,83
2018-07-08T01:34:59.568Z,83
2018-07-08T01:36:01.614Z,83
2018-07-08T01:37:03.654Z,82
2018-07-08T01:38:05.683Z,82
2018-07-08T01:39:07.723Z,82
2018-07-08T01:40:10.358Z,82
2018-07-08T01:41:12.404Z,82
2018-07-08T01:42:14.443Z,82
2018-07-08T01:43:16.484Z,82
2018-07-08T01:44:18.567Z,82
2018-07-08T01:45:20.562Z,82
2018-07-08T01:46:22.590Z,82
2018-07-08T01:47:24.636Z,82
2018-07-08T01:48:26.956Z,82
2018-07-08T01:49:28.990Z,82
2018-07-08T01:50:31.420Z,82
2018-07-08T01:51:33.838Z,82
2018-07-08T01:52:35.877Z,82
2018-07-08T01:53:37.906Z,82
2018-07-08T01:54:40.544Z,82
2018-07-08T01:55:42.584Z,82
2018-07-08T01:56:44.613Z,82
2018-07-08T01:57:46.963Z,82
2018-07-08T01:58:49.002Z,82
2018-07-08T01:59:51.038Z,82
2018-07-08T02:00:53.082Z,82
2018-07-08T02:01:55.125Z,82
2018-07-08T02:02:57.166Z,82
2018-07-08T02:03:59.213Z,82
2018-07-08T02:05:01.252Z,82
2018-07-08T02:06:03.583Z,82
2018-07-08T02:07:05.687Z,82
2018-07-08T02:08:07.666Z,82
2018-07-08T02:09:09.986Z,82
2018-07-08T02:10:12.027Z,82
2018-07-08T02:11:14.740Z,82
2018-07-08T02:12:16.787Z,82
2018-07-08T02:13:18.818Z,82
2018-07-08T02:14:21.150Z,82
2018-07-08T02:15:23.482Z,82
2018-07-08T02:16:25.834Z,82
2018-07-08T02:17:28.258Z,82
2018-07-08T02:18:30.296Z,82
2018-07-08T02:19:32.345Z,82
2018-07-08T02:20:34.379Z,82
2018-07-08T02:21:36.694Z,82
2018-07-08T02:22:38.738Z,82
2018-07-08T02:23:40.771Z,82
2018-07-08T02:24:42.813Z,82
2018-07-08T02:25:45.136Z,82
2018-07-08T02:26:47.460Z,82
2018-07-08T02:27:49.790Z,82
2018-07-08T02:28:51.817Z,82
2018-07-08T02:29:53.856Z,83
2018-07-08T02:30:55.890Z,83
2018-07-08T02:31:58.237Z,83
2018-07-08T02:33:00.667Z,83
2018-07-08T02:34:02.705Z,83
2018-07-08T02:35:05.028Z,83
2018-07-08T02:36:07.735Z,83
2018-07-08T02:37:09.763Z,83
2018-07-08T02:38:11.818Z,83
2018-07-08T02:39:13.854Z,83
2018-07-08T02:40:15.901Z,83
2018-07-08T02:41:18.329Z,83
2018-07-08T02:42:20.365Z,83
2018-07-08T02:43:22.792Z,83
2018-07-08T02:44:24.845Z,83
2018-07-08T02:45:26.881Z,83
2018-07-08T02:46:28.922Z,84
2018-07-08T02:47:31.248Z,84
2018-07-08T02:48:33.282Z,84
2018-07-08T02:49:35.638Z,84
2018-07-08T02:50:38.338Z,84
2018-07-08T02:51:40.389Z,84
2018-07-08T02:52:42.428Z,84
2018-07-08T02:53:44.758Z,84
2018-07-08T02:54:46.802Z,84
2018-07-08T02:55:48.840Z,84
2018-07-08T02:56:50.869Z,84
2018-07-08T02:57:52.909Z,84
2018-07-08T02:58:55.612Z,84
2018-07-08T02:59:57.664Z,84
2018-07-08T03:00:59.698Z,84
2018-07-08T03:02:01.741Z,84
2018-07-08T03:03:03.791Z,84
2018-07-08T03:04:05.832Z,84
2018-07-08T03:05:07.863Z,84
2018-07-08T03:06:09.901Z,84
2018-07-08T03:07:12.322Z,84
2018-07-08T03:08:14.362Z,84
2018-07-08T03:09:16.399Z,84
2018-07-08T03:10:19.232Z,84
2018-07-08T03:11:21.944Z,84
2018-07-08T03:12:24.646Z,83
2018-07-08T03:13:26.973Z,83
2018-07-08T03:14:29.600Z,84
2018-07-08T03:15:31.930Z,83
2018-07-08T03:16:34.366Z,84
2018-07-08T03:17:36.400Z,84
2018-07-08T03:18:39.017Z,84
2018-07-08T03:19:41.066Z,84
2018-07-08T03:20:43.097Z,83
2018-07-08T03:21:45.411Z,83
2018-07-08T03:22:47.839Z,83
2018-07-08T03:23:50.172Z,83
2018-07-08T03:24:52.200Z,83
2018-07-08T03:25:54.625Z,83
2018-07-08T03:26:57.335Z,83
2018-07-08T03:27:59.376Z,83
2018-07-08T03:29:02.004Z,83
2018-07-08T03:30:04.049Z,83
2018-07-08T03:31:06.400Z,83
2018-07-08T03:32:08.446Z,83
2018-07-08T03:33:10.780Z,83
2018-07-08T03:34:12.835Z,83
2018-07-08T03:35:15.254Z,83
2018-07-08T03:36:17.293Z,83
2018-07-08T03:37:19.331Z,83
2018-07-08T03:38:21.376Z,83
2018-07-08T03:39:23.418Z,82
2018-07-08T03:40:25.454Z,83
2018-07-08T03:41:27.492Z,83
2018-07-08T03:42:29.532Z,82
2018-07-08T03:43:31.555Z,83
2018-07-08T03:44:33.598Z,82
2018-07-08T03:45:35.649Z,82
2018-07-08T03:46:37.690Z,82
2018-07-08T03:47:39.733Z,82
2018-07-08T03:48:42.159Z,82
2018-07-08T03:49:44.200Z,82
2018-07-08T03:50:46.232Z,82
2018-07-08T03:51:48.277Z,82
2018-07-08T03:52:50.332Z,82
2018-07-08T03:53:52.366Z,82
2018-07-08T03:54:54.397Z,82
2018-07-08T03:55:56.427Z,82
2018-07-08T03:56:58.465Z,82
2018-07-08T03:58:00.511Z,82
2018-07-08T03:59:02.551Z,82
2018-07-08T04:00:04.600Z,82
2018-07-08T04:01:07.022Z,82
2018-07-08T04:02:09.735Z,82
2018-07-08T04:03:11.774Z,82
2018-07-08T04:04:13.813Z,82
2018-07-08T04:05:15.842Z,82
2018-07-08T04:06:17.895Z,82
2018-07-08T04:07:19.918Z,82
2018-07-08T04:08:21.962Z,82
2018-07-08T04:09:24.003Z,82
2018-07-08T04:10:26.341Z,82
2018-07-08T04:11:28.385Z,82
2018-07-08T04:12:30.420Z,82
2018-07-08T04:13:32.455Z,82
2018-07-08T04:14:34.508Z,81
2018-07-08T04:15:36.536Z,81
2018-07-08T04:16:38.594Z,81
2018-07-08T04:17:40.621Z,81
2018-07-08T04:18:42.665Z,81
2018-07-08T04:19:44.700Z,81
2018-07-08T04:20:46.737Z,81
2018-07-08T04:21:48.777Z,81
2018-07-08T04:22:50.823Z,81
2018-07-08T04:23:53.232Z,81
2018-07-08T04:24:55.275Z,81
2018-07-08T04:25:57.304Z,82
2018-07-08T04:26:59.633Z,81
2018-07-08T04:28:01.734Z,82
2018-07-08T04:29:03.771Z,81
2018-07-08T04:30:05.806Z,81
2018-07-08T04:31:08.414Z,81
2018-07-08T04:32:10.454Z,81
2018-07-08T04:33:12.512Z,81
2018-07-08T04:34:15.409Z,81
2018-07-08T04:35:17.451Z,81
2018-07-08T04:36:19.488Z,81
2018-07-08T04:37:21.529Z,81
2018-07-08T04:38:23.572Z,81
2018-07-08T04:39:25.597Z,81
2018-07-08T04:40:28.223Z,81
2018-07-08T04:41:30.262Z,81
2018-07-08T04:42:32.303Z,81
2018-07-08T04:43:34.344Z,81
2018-07-08T04:44:36.720Z,81
2018-07-08T04:45:38.761Z,81
2018-07-08T04:46:41.088Z,81
2018-07-08T04:47:43.108Z,81
2018-07-08T04:48:45.163Z,82
2018-07-08T04:49:47.212Z,81
2018-07-08T04:50:49.249Z,81
2018-07-08T04:51:51.293Z,81
2018-07-08T04:52:53.332Z,81
2018-07-08T04:53:55.374Z,81
2018-07-08T04:54:57.413Z,81
2018-07-08T04:55:59.835Z,81
2018-07-08T04:57:01.889Z,81
2018-07-08T04:58:04.206Z,81
2018-07-08T04:59:06.247Z,81
2018-07-08T05:00:08.576Z,81
2018-07-08T05:01:10.614Z,81
2018-07-08T05:02:12.654Z,81
2018-07-08T05:03:14.692Z,81
2018-07-08T05:04:16.741Z,81
2018-07-08T05:05:19.070Z,81
2018-07-08T05:06:21.379Z,81
2018-07-08T05:07:23.714Z,81
2018-07-08T05:08:25.750Z,81
2018-07-08T05:09:28.089Z,81
2018-07-08T05:10:30.416Z,81
2018-07-08T05:11:32.450Z,81
2018-07-08T05:12:34.492Z,81
2018-07-08T05:13:36.542Z,80
2018-07-08T05:14:38.578Z,81
2018-07-08T05:15:40.613Z,81
2018-07-08T05:16:42.650Z,81
2018-07-08T05:17:44.692Z,81
2018-07-08T05:18:47.123Z,80
2018-07-08T05:19:49.159Z,81
2018-07-08T05:20:51.203Z,80
2018-07-08T05:21:53.243Z,80
2018-07-08T05:22:55.274Z,80
2018-07-08T05:23:57.315Z,81
2018-07-08T05:24:59.356Z,81
2018-07-08T05:26:01.994Z,81
2018-07-08T05:27:04.331Z,81
2018-07-08T05:28:06.751Z,80
2018-07-08T05:29:08.803Z,80
2018-07-08T05:30:10.842Z,80
2018-07-08T05:31:12.875Z,80
2018-07-08T05:32:14.932Z,80
2018-07-08T05:33:17.255Z,80
2018-07-08T05:34:19.681Z,80
2018-07-08T05:35:21.723Z,80
2018-07-08T05:36:23.759Z,80
2018-07-08T05:37:25.806Z,80
2018-07-08T05:38:27.840Z,80
2018-07-08T05:39:29.877Z,80
2018-07-08T05:40:32.204Z,80
2018-07-08T05:41:34.237Z,80
2018-07-08T05:42:36.282Z,79
2018-07-08T05:43:38.317Z,79
2018-07-08T05:44:40.360Z,79
2018-07-08T05:45:42.410Z,79
2018-07-08T05:46:44.442Z,79
2018-07-08T05:47:46.778Z,79
2018-07-08T05:48:48.823Z,79
2018-07-08T05:49:50.866Z,79
2018-07-08T05:50:53.490Z,78
2018-07-08T05:51:55.537Z,79
2018-07-08T05:52:57.580Z,78
2018-07-08T05:53:59.626Z,78
2018-07-08T05:55:02.363Z,78
2018-07-08T05:56:04.419Z,78
2018-07-08T05:57:06.457Z,78
2018-07-08T05:58:08.489Z,77
2018-07-08T05:59:10.530Z,77
2018-07-08T06:00:12.572Z,77
2018-07-08T06:01:14.611Z,78
2018-07-08T06:02:16.652Z,78
2018-07-08T06:03:18.696Z,77
2018-07-08T06:04:20.730Z,77
2018-07-08T06:05:22.762Z,77
2018-07-08T06:06:24.805Z,77
2018-07-08T06:07:26.850Z,77
2018-07-08T06:08:28.901Z,78
2018-07-08T06:09:30.942Z,77
2018-07-08T06:10:32.988Z,77
2018-07-08T06:11:35.044Z,76
2018-07-08T06:12:37.081Z,76
2018-07-08T06:13:39.129Z,76
2018-07-08T06:14:41.173Z,77
2018-07-08T06:15:43.214Z,77
2018-07-08T06:16:45.285Z,77
2018-07-08T06:17:47.301Z,77
2018-07-08T06:18:49.355Z,77
2018-07-08T06:19:51.390Z,77
2018-07-08T06:20:53.719Z,77
2018-07-08T06:21:55.768Z,77
2018-07-08T06:22:58.183Z,77
2018-07-08T06:24:00.617Z,77
2018-07-08T06:25:02.655Z,76
2018-07-08T06:26:04.795Z,77
2018-07-08T06:27:06.759Z,77
2018-07-08T06:28:08.795Z,76
2018-07-08T06:29:11.209Z,76
2018-07-08T06:30:13.555Z,76
2018-07-08T06:31:15.598Z,76
2018-07-08T06:32:18.031Z,75
2018-07-08T06:33:20.457Z,76
2018-07-08T06:34:22.884Z,76
2018-07-08T06:35:25.203Z,76
2018-07-08T06:36:27.255Z,75
2018-07-08T06:37:29.568Z,75
2018-07-08T06:38:31.620Z,75
2018-07-08T06:39:33.664Z,75
2018-07-08T06:40:35.979Z,74
2018-07-08T06:41:38.020Z,74
2018-07-08T06:42:40.063Z,73
2018-07-08T06:43:42.108Z,74
2018-07-08T06:44:44.161Z,74
2018-07-08T06:45:46.190Z,74
2018-07-08T06:46:48.242Z,73
2018-07-08T06:47:50.283Z,73
2018-07-08T06:48:52.322Z,73
2018-07-08T06:49:54.378Z,73
2018-07-08T06:50:56.428Z,72
2018-07-08T06:51:58.505Z,73
2018-07-08T06:53:00.522Z,73
2018-07-08T06:54:02.572Z,72
2018-07-08T06:55:04.620Z,72
2018-07-08T06:56:06.693Z,72
2018-07-08T06:57:08.733Z,73
2018-07-08T06:58:11.168Z,72
2018-07-08T06:59:13.241Z,72
2018-07-08T07:00:15.302Z,72
2018-07-08T07:01:17.355Z,71
2018-07-08T07:02:19.428Z,71
2018-07-08T07:03:21.496Z,72
2018-07-08T07:04:23.562Z,72
2018-07-08T07:05:25.598Z,72
2018-07-08T07:06:28.038Z,72
2018-07-08T07:07:30.662Z,72
2018-07-08T07:08:33.022Z,71
2018-07-08T07:09:35.055Z,71
2018-07-08T07:10:37.489Z,71
2018-07-08T07:11:39.537Z,71
2018-07-08T07:12:41.588Z,71
2018-07-08T07:13:43.655Z,71
2018-07-08T07:14:45.709Z,71
2018-07-08T07:15:47.815Z,71
2018-07-08T07:16:49.879Z,71
2018-07-08T07:17:51.923Z,70
2018-07-08T07:18:53.975Z,70
2018-07-08T07:19:56.013Z,70
2018-07-08T07:20:58.268Z,70
2018-07-08T07:22:00.601Z,70
2018-07-08T07:23:02.708Z,70
2018-07-08T07:24:04.696Z,70
2018-07-08T07:25:07.121Z,69
2018-07-08T07:26:09.185Z,68
2018-07-08T07:27:11.368Z,68
2018-07-08T07:28:13.455Z,68
2018-07-08T07:29:15.496Z,69
2018-07-08T07:30:17.550Z,69
2018-07-08T07:31:20.035Z,68
2018-07-08T07:32:22.323Z,68
2018-07-08T07:33:24.354Z,68
2018-07-08T07:34:26.797Z,68
2018-07-08T07:35:28.829Z,68
2018-07-08T07:36:30.873Z,68
2018-07-08T07:37:33.310Z,68
2018-07-08T07:38:35.355Z,67
2018-07-08T07:39:38.230Z,67
2018-07-08T07:40:40.564Z,67
2018-07-08T07:41:42.879Z,67
2018-07-08T07:42:44.947Z,67
2018-07-08T07:43:46.988Z,66
2018-07-08T07:44:49.190Z,66
2018-07-08T07:45:51.301Z,65
2018-07-08T07:46:53.734Z,66
2018-07-08T07:47:55.779Z,65
2018-07-08T07:48:58.116Z,65
2018-07-08T07:50:00.164Z,66
2018-07-08T07:51:02.335Z,66
2018-07-08T07:52:04.965Z,65
2018-07-08T07:53:07.295Z,65
2018-07-08T07:54:09.631Z,65
2018-07-08T07:55:11.671Z,65
2018-07-08T07:56:13.801Z,65
2018-07-08T07:57:15.845Z,65
2018-07-08T07:58:18.180Z,65
2018-07-08T07:59:20.234Z,64
2018-07-08T08:00:22.270Z,64
2018-07-08T08:01:24.421Z,64
2018-07-08T08:02:26.670Z,64
2018-07-08T08:03:29.005Z,64
2018-07-08T08:04:31.050Z,64
2018-07-08T08:05:33.092Z,65
2018-07-08T08:06:35.148Z,65
2018-07-08T08:07:37.556Z,64
2018-07-08T08:08:39.883Z,64
2018-07-08T08:09:41.928Z,64
2018-07-08T08:10:44.327Z,64
2018-07-08T08:11:46.628Z,63
2018-07-08T08:12:49.043Z,63
2018-07-08T08:13:51.128Z,64
2018-07-08T08:14:53.142Z,63
2018-07-08T08:15:55.173Z,63
2018-07-08T08:16:57.608Z,62
2018-07-08T08:17:59.662Z,63
2018-07-08T08:19:02.112Z,63
2018-07-08T08:20:04.168Z,63
2018-07-08T08:21:06.283Z,63
2018-07-08T08:22:08.262Z,62
2018-07-08T08:23:10.302Z,63
2018-07-08T08:24:12.355Z,63
2018-07-08T08:25:14.795Z,62
2018-07-08T08:26:16.874Z,62
2018-07-08T08:27:19.199Z,62
2018-07-08T08:28:21.257Z,62
2018-07-08T08:29:23.306Z,61
2018-07-08T08:30:25.518Z,62
2018-07-08T08:31:27.576Z,61
2018-07-08T08:32:29.927Z,61
2018-07-08T08:33:32.274Z,61
2018-07-08T08:34:34.717Z,61
2018-07-08T08:35:36.911Z,61
2018-07-08T08:36:39.010Z,62
2018-07-08T08:37:41.062Z,60
2018-07-08T08:38:43.123Z,60
2018-07-08T08:39:45.742Z,59
2018-07-08T08:40:47.812Z,59
2018-07-08T08:41:49.965Z,59
2018-07-08T08:42:52.403Z,59
2018-07-08T08:43:54.743Z,58
2018-07-08T08:44:57.089Z,58
2018-07-08T08:45:59.217Z,57
2018-07-08T08:47:01.630Z,57
2018-07-08T08:48:03.718Z,58
2018-07-08T08:49:06.172Z,59
2018-07-08T08:50:08.604Z,57
2018-07-08T08:51:10.663Z,58
2018-07-08T08:52:13.362Z,58
2018-07-08T08:53:15.817Z,58
2018-07-08T08:54:17.865Z,57
2018-07-08T08:55:19.906Z,58
2018-07-08T08:56:21.972Z,58
2018-07-08T08:57:24.026Z,57
2018-07-08T08:58:26.536Z,57
2018-07-08T08:59:28.741Z,56
2018-07-08T09:00:30.788Z,55
2018-07-08T09:01:32.846Z,56
2018-07-08T09:02:34.909Z,56
2018-07-08T09:03:37.414Z,56
2018-07-08T09:04:39.405Z,56
2018-07-08T09:05:41.461Z,55
2018-07-08T09:06:43.503Z,54
2018-07-08T09:07:45.543Z,55
2018-07-08T09:08:48.165Z,54
2018-07-08T09:09:50.609Z,55
2018-07-08T09:10:52.731Z,55
2018-07-08T09:11:54.706Z,55
2018-07-08T09:12:56.757Z,55
2018-07-08T09:13:58.806Z,53
2018-07-08T09:15:01.148Z,54
2018-07-08T09:16:03.203Z,54
2018-07-08T09:17:05.265Z,55
2018-07-08T09:18:07.313Z,56
2018-07-08T09:19:09.369Z,55
2018-07-08T09:20:11.414Z,53
2018-07-08T09:21:13.477Z,53
2018-07-08T09:22:15.521Z,53
2018-07-08T09:23:17.568Z,54
2018-07-08T09:24:19.619Z,53
2018-07-08T09:25:21.678Z,53
2018-07-08T09:26:23.739Z,53
2018-07-08T09:27:26.083Z,53
2018-07-08T09:28:28.136Z,53
2018-07-08T09:29:30.567Z,52
2018-07-08T09:30:32.627Z,52
2018-07-08T09:31:34.961Z,52
2018-07-08T09:32:37.008Z,53
2018-07-08T09:33:39.063Z,52
2018-07-08T09:34:41.126Z,52
2018-07-08T09:35:43.174Z,52
2018-07-08T09:36:45.237Z,52
2018-07-08T09:37:47.290Z,52
2018-07-08T09:38:49.710Z,52
2018-07-08T09:39:52.077Z,51
2018-07-08T09:40:54.138Z,52
2018-07-08T09:41:56.474Z,52
2018-07-08T09:42:58.519Z,51
2018-07-08T09:44:00.560Z,51
2018-07-08T09:45:02.895Z,51
2018-07-08T09:46:05.231Z,51
2018-07-08T09:47:07.288Z,51
2018-07-08T09:48:09.367Z,49
2018-07-08T09:49:11.412Z,52
2018-07-08T09:50:13.739Z,51
2018-07-08T09:51:15.803Z,51
2018-07-08T09:52:17.855Z,50
2018-07-08T09:53:19.915Z,50
2018-07-08T09:54:21.971Z,50
2018-07-08T09:55:24.705Z,50
2018-07-08T09:56:26.767Z,50
2018-07-08T09:57:28.824Z,50
2018-07-08T09:58:30.886Z,50
2018-07-08T09:59:32.933Z,50
2018-07-08T10:00:34.996Z,49
2018-07-08T10:01:39.158Z,49
2018-07-08T10:02:44.672Z,49
2018-07-08T10:03:52.610Z,49
2018-07-08T10:05:07.692Z,50
2018-07-08T10:06:09.777Z,49
2018-07-08T10:07:11.864Z,49
2018-07-08T10:08:14.207Z,49
2018-07-08T10:09:16.286Z,49
2018-07-08T10:10:18.622Z,49
2018-07-08T10:11:20.685Z,49
2018-07-08T10:12:23.459Z,48
2018-07-08T10:13:25.511Z,49
2018-07-08T10:14:27.876Z,48
2018-07-08T10:15:29.930Z,47
2018-07-08T10:16:31.996Z,47
2018-07-08T10:17:34.078Z,49
2018-07-08T10:18:36.136Z,48
2018-07-08T10:19:38.283Z,48
2018-07-08T10:20:40.249Z,47
2018-07-08T10:21:42.307Z,47
2018-07-08T10:22:44.655Z,48
2018-07-08T10:23:46.707Z,48
2018-07-08T10:24:48.772Z,48
2018-07-08T10:25:50.832Z,47
2018-07-08T10:26:52.886Z,47
2018-07-08T10:27:55.226Z,47
2018-07-08T10:28:57.297Z,46
2018-07-08T10:29:59.743Z,48
2018-07-08T10:31:01.800Z,48
2018-07-08T10:32:03.862Z,47
2018-07-08T10:33:05.928Z,47
2018-07-08T10:34:07.982Z,46
2018-07-08T10:35:10.044Z,46
2018-07-08T10:36:12.719Z,46
2018-07-08T10:37:14.774Z,46
2018-07-08T10:38:17.306Z,47
2018-07-08T10:39:19.314Z,45
2018-07-08T10:40:21.668Z,46
2018-07-08T10:41:23.730Z,45
2018-07-08T10:42:25.792Z,45
2018-07-08T10:43:28.432Z,46
2018-07-08T10:44:30.727Z,46
2018-07-08T10:45:32.776Z,46
2018-07-08T10:46:34.833Z,46
2018-07-08T10:47:36.895Z,46
2018-07-08T10:48:39.548Z,45
2018-07-08T10:49:41.604Z,44
2018-07-08T10:50:43.663Z,44
2018-07-08T10:51:45.718Z,44
2018-07-08T10:52:47.782Z,46
2018-07-08T10:53:49.843Z,45
2018-07-08T10:54:51.897Z,46
2018-07-08T10:55:54.245Z,46
2018-07-08T10:56:56.591Z,46
2018-07-08T10:57:58.657Z,45
2018-07-08T10:59:00.718Z,45
2018-07-08T11:00:03.159Z,44
2018-07-08T11:01:05.515Z,45
2018-07-08T11:02:07.575Z,45
2018-07-08T11:03:09.926Z,45
2018-07-08T11:04:12.555Z,45
2018-07-08T11:05:14.615Z,46
2018-07-08T11:06:16.679Z,44
2018-07-08T11:07:19.039Z,44
2018-07-08T11:08:21.101Z,45
2018-07-08T11:09:23.168Z,45
2018-07-08T11:10:25.218Z,45
2018-07-08T11:11:27.276Z,46
2018-07-08T11:12:29.345Z,47
2018-07-08T11:13:31.781Z,48
2018-07-08T11:14:33.844Z,49
2018-07-08T11:15:35.905Z,49
2018-07-08T11:16:37.978Z,49
2018-07-08T11:17:40.042Z,49
2018-07-08T11:18:42.100Z,47
2018-07-08T11:19:44.445Z,46
2018-07-08T11:20:46.555Z,46
2018-07-08T11:21:48.882Z,47
2018-07-08T11:22:50.949Z,46
2018-07-08T11:23:53.015Z,45
2018-07-08T11:24:55.077Z,47
2018-07-08T11:25:57.134Z,48
2018-07-08T11:26:59.476Z,48
2018-07-08T11:28:01.553Z,47
2018-07-08T11:29:03.607Z,46
2018-07-08T11:30:06.343Z,46
2018-07-08T11:31:08.411Z,45
2018-07-08T11:32:10.870Z,44
2018-07-08T11:33:12.938Z,45
2018-07-08T11:34:15.001Z,46
2018-07-08T11:35:17.047Z,46
2018-07-08T11:36:19.114Z,45
2018-07-08T11:37:21.757Z,46
2018-07-08T11:38:23.811Z,48
2018-07-08T11:39:25.872Z,48
2018-07-08T11:40:27.935Z,49
2018-07-08T11:41:30.002Z,48
2018-07-08T11:42:32.047Z,49
2018-07-08T11:43:34.409Z,48
2018-07-08T11:44:36.485Z,49
2018-07-08T11:45:39.113Z,49
2018-07-08T11:46:41.176Z,49
2018-07-08T11:47:43.229Z,48
2018-07-08T11:48:45.289Z,48
2018-07-08T11:49:47.656Z,48
2018-07-08T11:50:49.695Z,48
2018-07-08T11:51:51.773Z,48
2018-07-08T11:52:54.115Z,49
2018-07-08T11:53:56.442Z,50
2018-07-08T11:54:58.897Z,50
2018-07-08T11:56:00.948Z,50
2018-07-08T11:57:03.007Z,51
2018-07-08T11:58:05.458Z,50
2018-07-08T11:59:07.514Z,52
2018-07-08T12:00:09.590Z,52
2018-07-08T12:01:11.942Z,51
2018-07-08T12:02:14.007Z,51
2018-07-08T12:03:16.067Z,50
2018-07-08T12:04:18.125Z,50
2018-07-08T12:05:20.189Z,49
2018-07-08T12:06:22.261Z,48
2018-07-08T12:07:24.303Z,49
2018-07-08T12:08:26.674Z,50
2018-07-08T12:09:29.032Z,50
2018-07-08T12:10:31.094Z,51
2018-07-08T12:11:33.153Z,50
2018-07-08T12:12:35.213Z,49
2018-07-08T12:13:37.278Z,49
2018-07-08T12:14:39.422Z,49
2018-07-08T12:15:41.394Z,48
2018-07-08T12:16:43.453Z,50
2018-07-08T12:17:45.808Z,49
2018-07-08T12:18:47.864Z,48
2018-07-08T12:19:49.916Z,49
2018-07-08T12:20:51.986Z,49
2018-07-08T12:21:54.041Z,50
2018-07-08T12:22:56.384Z,51
2018-07-08T12:23:58.718Z,52
2018-07-08T12:25:00.790Z,51
2018-07-08T12:26:02.847Z,50
2018-07-08T12:27:04.910Z,49
2018-07-08T12:28:06.964Z,49
2018-07-08T12:29:09.021Z,48
2018-07-08T12:30:11.082Z,49
2018-07-08T12:31:13.426Z,48
2018-07-08T12:32:15.481Z,48
2018-07-08T12:33:17.941Z,48
2018-07-08T12:34:19.977Z,48
2018-07-08T12:35:22.041Z,45
2018-07-08T12:36:24.106Z,45
2018-07-08T12:37:26.164Z,45
2018-07-08T12:38:28.613Z,46
2018-07-08T12:39:30.677Z,46
2018-07-08T12:40:32.732Z,46
2018-07-08T12:41:34.815Z,46
2018-07-08T12:42:36.859Z,47
2018-07-08T12:43:38.929Z,48
2018-07-08T12:44:41.163Z,48
2018-07-08T12:45:43.572Z,47
2018-07-08T12:46:45.915Z,47
2018-07-08T12:47:47.976Z,47
2018-07-08T12:48:50.042Z,46
2018-07-08T12:49:52.109Z,46
2018-07-08T12:50:54.161Z,45
2018-07-08T12:51:56.223Z,46
2018-07-08T12:52:58.570Z,46
2018-07-08T12:54:00.920Z,47
2018-07-08T12:55:02.981Z,46
2018-07-08T12:56:05.028Z,45
2018-07-08T12:57:07.100Z,45
2018-07-08T12:58:09.153Z,46
2018-07-08T12:59:11.212Z,45
2018-07-08T13:00:13.274Z,44
2018-07-08T13:01:15.879Z,45
2018-07-08T13:02:17.897Z,45
2018-07-08T13:03:19.918Z,45
2018-07-08T13:04:21.941Z,45
2018-07-08T13:05:23.959Z,44
2018-07-08T13:06:26.092Z,44
2018-07-08T13:07:28.042Z,43
2018-07-08T13:08:30.064Z,44
2018-07-08T13:09:32.298Z,45
2018-07-08T13:10:34.323Z,44
2018-07-08T13:11:36.422Z,44
2018-07-08T13:12:38.461Z,43
2018-07-08T13:13:41.207Z,43
2018-07-08T13:14:43.271Z,43
2018-07-08T13:15:45.327Z,43
2018-07-08T13:16:47.396Z,42
2018-07-08T13:17:49.844Z,42
2018-07-08T13:18:52.305Z,42
2018-07-08T13:19:55.205Z,42
2018-07-08T13:20:57.236Z,42
2018-07-08T13:21:59.591Z,41
2018-07-08T13:23:02.050Z,41
2018-07-08T13:24:04.926Z,40
2018-07-08T13:25:06.994Z,41
2018-07-08T13:26:09.112Z,42
2018-07-08T13:27:15.906Z,42
2018-07-08T13:28:19.337Z,42
2018-07-08T13:29:24.304Z,44
2018-07-08T13:30:36.987Z,45
2018-07-08T13:31:42.203Z,45
2018-07-08T13:32:46.488Z,45
2018-07-08T13:33:48.550Z,45
2018-07-08T13:34:50.901Z,45
2018-07-08T13:35:52.968Z,45
2018-07-08T13:36:55.031Z,46
2018-07-08T13:37:57.098Z,46
2018-07-08T13:38:59.232Z,46
2018-07-08T13:40:01.570Z,45
2018-07-08T13:41:03.634Z,44
2018-07-08T13:42:05.692Z,43
2018-07-08T13:43:07.774Z,42
2018-07-08T13:44:10.225Z,43
2018-07-08T13:45:12.290Z,43
2018-07-08T13:46:14.349Z,43
2018-07-08T13:47:16.861Z,43
2018-07-08T13:48:18.895Z,43
2018-07-08T13:49:20.955Z,43
2018-07-08T13:50:23.016Z,44
2018-07-08T13:51:25.359Z,42
2018-07-08T13:52:27.711Z,43
2018-07-08T13:53:30.098Z,42
2018-07-08T13:54:32.164Z,43
2018-07-08T13:55:34.321Z,43
2018-07-08T13:56:36.584Z,43
2018-07-08T13:57:38.632Z,43
2018-07-08T13:58:40.704Z,44
2018-07-08T13:59:42.783Z,43
2018-07-08T14:00:44.851Z,44
2018-07-08T14:01:46.918Z,43
2018-07-08T14:02:49.560Z,44
2018-07-08T14:03:51.617Z,43
2018-07-08T14:04:53.697Z,42
2018-07-08T14:05:55.755Z,42
2018-07-08T14:06:57.821Z,40
2018-07-08T14:07:59.949Z,40
2018-07-08T14:09:01.953Z,41
2018-07-08T14:10:04.304Z,41
2018-07-08T14:11:06.368Z,41
2018-07-08T14:12:08.804Z,42
2018-07-08T14:13:10.886Z,42
2018-07-08T14:14:13.227Z,43
2018-07-08T14:15:15.585Z,41
2018-07-08T14:16:17.652Z,42
2018-07-08T14:17:19.715Z,41
2018-07-08T14:18:21.785Z,41
2018-07-08T14:19:24.141Z,41
2018-07-08T14:20:26.714Z,42
2018-07-08T14:21:29.054Z,42
2018-07-08T14:22:31.116Z,42
2018-07-08T14:23:33.196Z,41
2018-07-08T14:24:35.861Z,39
2018-07-08T14:25:38.804Z,39
2018-07-08T14:26:40.820Z,39
2018-07-08T14:27:42.885Z,39
2018-07-08T14:28:44.957Z,43
2018-07-08T14:29:47.033Z,44
2018-07-08T14:30:49.093Z,44
2018-07-08T14:31:51.172Z,44
2018-07-08T14:32:53.230Z,44
2018-07-08T14:33:55.292Z,45
2018-07-08T14:34:57.904Z,44
2018-07-08T14:35:59.964Z,43
2018-07-08T14:37:02.042Z,43
2018-07-08T14:38:04.098Z,43
2018-07-08T14:39:06.169Z,43
2018-07-08T14:40:08.254Z,44
2018-07-08T14:41:10.312Z,43
2018-07-08T14:42:12.670Z,43
2018-07-08T14:43:14.735Z,43
2018-07-08T14:44:16.802Z,43
2018-07-08T14:45:19.492Z,44
2018-07-08T14:46:21.938Z,43
2018-07-08T14:47:24.003Z,42